createdAt,value
2019-03-23T00:02:36.890Z,52.38
2019-03-23T00:05:16.360Z,53.50
2019-03-23T00:07:54.559Z,49.77
2019-03-23T00:10:35.957Z,53.60
2019-03-23T00:13:16.277Z,53.65
2019-03-23T00:15:56.638Z,50.98
2019-03-23T00:18:37.666Z,52.60
2019-03-23T00:21:16.914Z,49.90
2019-03-23T00:23:55.894Z,48.30
2019-03-23T00:26:36.084Z,47.27
2019-03-23T00:29:17.055Z,52.60
2019-03-23T00:31:55.302Z,50.70
2019-03-23T00:34:34.269Z,49.80
2019-03-23T00:37:13.038Z,50.43
2019-03-23T00:39:51.247Z,55.52
2019-03-23T00:42:34.499Z,51.55
2019-03-23T00:45:14.786Z,49.13
2019-03-23T00:47:53.362Z,53.78
2019-03-23T00:50:33.725Z,47.55
2019-03-23T00:53:19.537Z,47.98
2019-03-23T00:55:59.682Z,51.02
2019-03-23T00:58:38.799Z,46.92
2019-03-23T01:01:20.627Z,52.73
2019-03-23T01:04:00.777Z,44.18
2019-03-23T01:06:39.960Z,51.05
2019-03-23T01:09:18.815Z,48.20
2019-03-23T01:11:57.443Z,44.53
2019-03-23T01:14:35.611Z,49.93
2019-03-23T01:17:14.588Z,47.83
2019-03-23T01:19:54.581Z,42.33
2019-03-23T01:22:35.098Z,42.30
2019-03-23T01:25:17.267Z,49.15
2019-03-23T01:27:57.359Z,41.95
2019-03-23T01:30:36.525Z,41.53
2019-03-23T01:33:20.258Z,40.03
2019-03-23T01:35:59.769Z,39.80
2019-03-23T01:38:41.895Z,42.45
2019-03-23T01:41:21.060Z,40.73
2019-03-23T01:44:02.040Z,38.48
2019-03-23T01:46:41.458Z,43.60
2019-03-23T01:49:21.802Z,39.73
2019-03-23T01:52:00.966Z,42.08
2019-03-23T01:54:39.238Z,39.55
2019-03-23T01:57:26.359Z,40.90
2019-03-23T02:00:07.896Z,36.75
2019-03-23T02:02:47.691Z,38.63
2019-03-23T02:05:31.650Z,38.00
2019-03-23T02:08:14.746Z,37.28
2019-03-23T02:10:55.458Z,37.25
2019-03-23T02:13:36.644Z,42.00
2019-03-23T02:16:16.205Z,40.52
2019-03-23T02:18:55.197Z,39.55
2019-03-23T02:21:35.592Z,38.48
2019-03-23T02:24:14.298Z,36.93
2019-03-23T02:26:53.271Z,35.40
2019-03-23T02:29:33.768Z,40.20
2019-03-23T02:32:12.680Z,32.85
2019-03-23T02:34:51.738Z,36.40
2019-03-23T02:37:32.527Z,34.33
2019-03-23T02:40:12.504Z,35.23
2019-03-23T02:42:53.708Z,33.88
2019-03-23T02:45:32.319Z,31.02
2019-03-23T02:48:11.129Z,41.28
2019-03-23T02:50:50.576Z,35.88
2019-03-23T02:53:31.283Z,36.93
2019-03-23T02:56:10.406Z,33.25
2019-03-23T02:58:49.144Z,32.85
2019-03-23T03:01:31.948Z,42.33
2019-03-23T03:04:16.501Z,44.08
2019-03-23T03:06:57.715Z,36.77
2019-03-23T03:09:41.370Z,47.10
2019-03-23T03:12:23.073Z,38.30
2019-03-23T03:15:03.412Z,36.68
2019-03-23T03:17:42.508Z,34.18
2019-03-23T03:20:21.404Z,40.00
2019-03-23T03:23:04.660Z,39.15
2019-03-23T03:25:44.705Z,37.40
2019-03-23T03:28:24.503Z,33.90
2019-03-23T03:31:03.426Z,37.13
2019-03-23T03:33:42.827Z,34.95
2019-03-23T03:36:25.072Z,39.58
2019-03-23T03:39:03.889Z,38.50
2019-03-23T03:41:43.543Z,36.05
2019-03-23T03:44:23.624Z,36.30
2019-03-23T03:47:08.519Z,37.45
2019-03-23T03:49:55.958Z,41.42
2019-03-23T03:52:36.674Z,40.10
2019-03-23T03:55:16.560Z,38.98
2019-03-23T03:57:58.671Z,35.95
2019-03-23T04:00:37.778Z,36.50
2019-03-23T04:03:17.634Z,37.05
2019-03-23T04:05:57.903Z,36.98
2019-03-23T04:08:38.348Z,34.23
2019-03-23T04:11:18.057Z,36.13
2019-03-23T04:13:58.861Z,35.35
2019-03-23T04:16:37.143Z,39.35
2019-03-23T04:19:16.279Z,38.80
2019-03-23T04:22:03.825Z,36.15
2019-03-23T04:24:43.066Z,35.40
2019-03-23T04:27:21.350Z,39.20
2019-03-23T04:30:02.610Z,37.17
2019-03-23T04:32:42.286Z,44.73
2019-03-23T04:35:20.522Z,39.35
2019-03-23T04:37:59.248Z,36.20
2019-03-23T04:40:39.196Z,36.75
2019-03-23T04:43:18.392Z,33.35
2019-03-23T04:45:58.463Z,42.05
2019-03-23T04:48:38.428Z,36.50
2019-03-23T04:51:17.598Z,34.60
2019-03-23T04:53:58.520Z,39.67
2019-03-23T04:56:37.792Z,36.13
2019-03-23T04:59:16.556Z,39.10
2019-03-23T05:01:57.936Z,35.43
2019-03-23T05:04:41.125Z,36.05
2019-03-23T05:09:59.821Z,36.53
2019-03-23T05:12:42.435Z,37.63
2019-03-23T05:15:20.485Z,35.20
2019-03-23T05:18:00.427Z,36.00
2019-03-23T05:20:41.257Z,34.23
2019-03-23T05:23:20.323Z,36.25
2019-03-23T05:25:59.710Z,30.05
2019-03-23T05:31:17.396Z,32.45
2019-03-23T05:33:56.160Z,36.85
2019-03-23T05:36:35.360Z,32.85
2019-03-23T05:39:14.429Z,38.38
2019-03-23T05:41:55.208Z,33.30
2019-03-23T05:44:35.038Z,34.85
2019-03-23T05:47:16.602Z,36.50
2019-03-23T05:49:57.191Z,29.12
2019-03-23T05:52:36.085Z,29.05
2019-03-23T05:55:15.623Z,33.85
2019-03-23T05:57:55.713Z,32.48
2019-03-23T06:00:35.138Z,33.05
2019-03-23T06:03:21.143Z,30.43
2019-03-23T06:06:00.584Z,35.80
2019-03-23T06:08:39.681Z,34.30
2019-03-23T06:11:18.705Z,37.10
2019-03-23T06:13:56.706Z,29.30
2019-03-23T06:16:39.491Z,33.38
2019-03-23T06:19:18.915Z,38.02
2019-03-23T06:22:09.097Z,32.28
2019-03-23T06:24:47.697Z,31.12
2019-03-23T06:27:27.507Z,32.98
2019-03-23T06:30:10.786Z,32.65
2019-03-23T06:32:49.503Z,33.23
2019-03-23T06:35:29.024Z,28.07
2019-03-23T06:38:08.994Z,28.07
2019-03-23T06:40:55.315Z,27.73
2019-03-23T06:43:35.275Z,30.52
2019-03-23T06:46:19.443Z,29.82
2019-03-23T06:49:02.049Z,30.43
2019-03-23T06:51:42.036Z,28.92
2019-03-23T06:54:23.722Z,32.95
2019-03-23T06:57:03.625Z,32.30
2019-03-23T06:59:44.121Z,31.95
2019-03-23T07:02:28.125Z,28.67
2019-03-23T07:05:06.724Z,30.37
2019-03-23T07:07:45.887Z,30.50
2019-03-23T07:10:26.171Z,28.57
2019-03-23T07:13:07.709Z,33.13
2019-03-23T07:15:51.988Z,37.90
2019-03-23T07:18:31.229Z,30.15
2019-03-23T07:23:52.054Z,32.63
2019-03-23T07:26:32.141Z,25.45
2019-03-23T07:29:11.757Z,27.40
2019-03-23T07:31:51.375Z,28.62
2019-03-23T07:34:35.965Z,38.95
2019-03-23T07:37:14.413Z,34.83
2019-03-23T07:40:00.461Z,31.50
2019-03-23T07:42:40.601Z,35.92
2019-03-23T07:45:21.484Z,35.17
2019-03-23T07:48:01.422Z,31.93
2019-03-23T07:50:40.021Z,27.50
2019-03-23T07:53:19.164Z,25.82
2019-03-23T07:55:58.259Z,28.05
2019-03-23T07:58:38.869Z,30.23
2019-03-23T08:01:17.544Z,27.55
2019-03-23T08:03:58.018Z,31.30
2019-03-23T08:06:40.803Z,36.65
2019-03-23T08:09:23.495Z,36.70
2019-03-23T08:14:38.937Z,39.35
2019-03-23T08:17:18.115Z,37.80
2019-03-23T08:19:56.228Z,41.68
2019-03-23T08:22:35.930Z,34.18
2019-03-23T08:25:14.981Z,36.77
2019-03-23T08:27:56.771Z,31.30
2019-03-23T08:30:45.226Z,32.75
2019-03-23T08:33:25.546Z,32.03
2019-03-23T08:36:11.569Z,35.00
2019-03-23T08:38:54.030Z,35.52
2019-03-23T08:41:35.169Z,36.33
2019-03-23T08:44:17.072Z,36.17
2019-03-23T08:46:56.195Z,38.02
2019-03-23T08:49:37.949Z,41.50
2019-03-23T08:52:17.144Z,47.23
2019-03-23T08:54:56.068Z,36.98
2019-03-23T08:57:34.352Z,33.15
2019-03-23T09:00:17.070Z,32.58
2019-03-23T09:03:03.832Z,36.45
2019-03-23T09:05:42.480Z,35.28
2019-03-23T09:08:24.205Z,34.03
2019-03-23T09:11:04.840Z,43.48
2019-03-23T09:13:44.294Z,51.53
2019-03-23T09:16:23.315Z,42.03
2019-03-23T09:19:05.421Z,40.98
2019-03-23T09:21:44.985Z,37.40
2019-03-23T09:24:23.060Z,38.78
2019-03-23T09:27:02.090Z,43.42
2019-03-23T09:29:41.469Z,37.93
2019-03-23T09:32:23.599Z,37.10
2019-03-23T09:35:03.726Z,34.55
2019-03-23T09:37:45.137Z,37.50
2019-03-23T09:40:23.891Z,45.60
2019-03-23T09:43:02.804Z,42.43
2019-03-23T09:45:41.806Z,36.20
2019-03-23T09:48:20.862Z,36.30
2019-03-23T09:51:00.196Z,39.78
2019-03-23T09:53:41.045Z,58.50
2019-03-23T09:56:20.998Z,41.73
2019-03-23T09:58:59.383Z,38.17
2019-03-23T10:01:41.920Z,47.30
2019-03-23T10:04:20.566Z,37.75
2019-03-23T10:07:02.329Z,40.90
2019-03-23T10:09:41.559Z,39.73
2019-03-23T10:12:22.740Z,41.55
2019-03-23T10:15:02.071Z,36.17
2019-03-23T10:17:41.994Z,34.95
2019-03-23T10:20:21.131Z,38.48
2019-03-23T10:23:02.120Z,40.43
2019-03-23T10:25:42.036Z,44.55
2019-03-23T10:28:22.544Z,37.45
2019-03-23T10:31:02.504Z,44.20
2019-03-23T10:33:43.330Z,38.83
2019-03-23T10:36:24.195Z,42.30
2019-03-23T10:39:06.907Z,34.43
2019-03-23T10:41:46.789Z,52.78
2019-03-23T10:44:26.482Z,41.73
2019-03-23T10:47:15.341Z,54.67
2019-03-23T10:49:56.543Z,38.30
2019-03-23T10:52:37.025Z,45.80
2019-03-23T11:30:01.612Z,38.38
2019-03-23T11:32:45.287Z,35.60
2019-03-23T11:35:26.782Z,41.05
2019-03-23T11:38:22.860Z,39.85
2019-03-23T11:41:23.376Z,40.65
2019-03-23T11:54:48.619Z,42.78
2019-03-23T11:57:27.273Z,36.05
2019-03-23T12:00:09.153Z,37.40
2019-03-23T12:02:49.079Z,35.52
2019-03-23T12:05:28.494Z,51.37
2019-03-23T12:08:07.283Z,49.05
2019-03-23T12:10:45.782Z,46.35
2019-03-23T12:13:25.145Z,44.55
2019-03-23T12:16:04.278Z,36.33
2019-03-23T12:18:44.167Z,38.70
2019-03-23T12:21:23.766Z,36.08
2019-03-23T12:24:03.067Z,44.30
2019-03-23T12:26:42.001Z,44.15
2019-03-23T12:29:22.032Z,42.85
2019-03-23T12:32:00.588Z,44.65
2019-03-23T12:34:39.735Z,48.15
2019-03-23T12:37:18.137Z,41.90
2019-03-23T12:39:57.565Z,41.68
2019-03-23T12:42:37.876Z,55.03
2019-03-23T12:45:17.925Z,53.25
2019-03-23T12:47:59.087Z,49.65
2019-03-23T12:50:38.478Z,32.03
2019-03-23T12:53:19.382Z,32.33
2019-03-23T12:56:00.864Z,34.67
2019-03-23T12:58:48.126Z,34.10
2019-03-23T13:01:28.494Z,31.85
2019-03-23T13:04:08.832Z,31.65
2019-03-23T13:06:48.084Z,32.33
2019-03-23T13:09:45.643Z,34.20
2019-03-23T13:12:24.916Z,34.48
2019-03-23T13:15:04.002Z,42.13
2019-03-23T13:17:43.499Z,34.48
2019-03-23T13:20:25.543Z,35.65
2019-03-23T13:25:42.527Z,32.35
2019-03-23T13:28:31.366Z,29.45
2019-03-23T13:31:10.137Z,32.88
2019-03-23T13:33:49.524Z,29.27
2019-03-23T13:36:30.863Z,28.32
2019-03-23T13:39:11.554Z,26.95
2019-03-23T13:44:33.448Z,30.20
2019-03-23T13:47:15.068Z,30.35
2019-03-23T13:49:54.343Z,29.18
2019-03-23T13:52:33.026Z,29.00
2019-03-23T13:55:14.308Z,24.40
2019-03-23T13:57:53.413Z,34.30
2019-03-23T14:00:32.475Z,29.55
2019-03-23T14:03:12.158Z,28.73
2019-03-23T14:05:51.183Z,35.38
2019-03-23T14:08:29.558Z,40.40
2019-03-23T14:11:08.986Z,38.25
2019-03-23T14:13:47.864Z,34.73
2019-03-23T14:16:26.307Z,41.53
2019-03-23T14:19:05.545Z,37.45
2019-03-23T14:21:46.336Z,38.60
2019-03-23T14:24:24.685Z,40.75
2019-03-23T14:27:05.501Z,32.10
2019-03-23T14:29:45.496Z,35.78
2019-03-23T14:32:25.978Z,35.90
2019-03-23T14:35:04.976Z,40.92
2019-03-23T14:37:44.213Z,33.88
2019-03-23T14:40:22.929Z,33.20
2019-03-23T14:43:03.085Z,35.05
2019-03-23T14:45:44.035Z,37.35
2019-03-23T14:48:25.562Z,44.95
2019-03-23T14:51:04.413Z,40.30
2019-03-23T14:53:43.998Z,36.55
2019-03-23T14:56:24.314Z,37.73
2019-03-23T14:59:03.137Z,37.63
2019-03-23T15:01:41.753Z,37.65
2019-03-23T15:04:20.733Z,41.23
2019-03-23T15:07:00.275Z,35.92
2019-03-23T15:09:40.574Z,34.13
2019-03-23T15:12:19.426Z,37.55
2019-03-23T15:14:58.502Z,34.43
2019-03-23T15:17:37.555Z,33.73
2019-03-23T15:20:16.763Z,36.17
2019-03-23T15:22:54.884Z,39.80
2019-03-23T15:25:33.930Z,35.52
2019-03-23T15:28:13.982Z,36.85
2019-03-23T15:30:52.601Z,35.28
2019-03-23T15:33:31.104Z,37.70
2019-03-23T15:36:11.787Z,41.42
2019-03-23T15:38:53.809Z,40.20
2019-03-23T15:41:33.426Z,37.10
2019-03-23T15:44:12.037Z,32.85
2019-03-23T15:46:51.467Z,37.13
2019-03-23T15:49:30.243Z,36.08
2019-03-23T15:52:08.707Z,33.42
2019-03-23T15:54:46.912Z,31.00
2019-03-23T15:57:27.892Z,36.48
2019-03-23T16:00:09.311Z,36.40
2019-03-23T16:02:48.380Z,35.77
2019-03-23T16:05:27.342Z,30.05
2019-03-23T16:08:06.861Z,34.33
2019-03-23T16:10:46.742Z,37.83
2019-03-23T16:13:26.273Z,33.70
2019-03-23T16:16:05.542Z,32.10
2019-03-23T16:18:47.655Z,32.48
2019-03-23T16:24:02.339Z,29.30
2019-03-23T16:26:40.682Z,33.08
2019-03-23T16:29:26.631Z,32.60
2019-03-23T16:32:05.391Z,34.33
2019-03-23T16:34:44.596Z,37.08
2019-03-23T16:37:24.370Z,37.33
2019-03-23T16:40:02.794Z,30.82
2019-03-23T16:42:45.439Z,34.45
2019-03-23T16:45:22.873Z,37.63
2019-03-23T16:48:01.036Z,33.28
2019-03-23T16:50:41.167Z,31.37
2019-03-23T16:53:19.614Z,36.03
2019-03-23T16:55:58.677Z,34.05
2019-03-23T16:58:38.070Z,38.73
2019-03-23T17:01:18.035Z,33.58
2019-03-23T17:04:02.890Z,32.80
2019-03-23T17:06:46.513Z,38.17
2019-03-23T17:09:28.065Z,33.48
2019-03-23T17:12:08.322Z,37.10
2019-03-23T17:14:49.612Z,38.60
2019-03-23T17:17:29.794Z,44.93
2019-03-23T17:20:11.430Z,37.40
2019-03-23T17:22:51.955Z,36.30
2019-03-23T17:25:30.958Z,39.78
2019-03-23T17:28:10.325Z,33.90
2019-03-23T17:30:49.105Z,37.58
2019-03-23T17:33:34.338Z,33.23
2019-03-23T17:36:12.209Z,39.27
2019-03-23T17:38:51.877Z,37.05
2019-03-23T17:41:30.610Z,39.15
2019-03-23T17:44:12.300Z,40.00
2019-03-23T17:46:51.446Z,39.42
2019-03-23T17:49:31.288Z,42.85
2019-03-23T17:52:09.525Z,42.45
2019-03-23T17:54:50.975Z,47.53
2019-03-23T17:57:30.462Z,44.88
2019-03-23T18:00:14.201Z,48.28
2019-03-23T18:02:52.714Z,50.38
2019-03-23T18:05:31.479Z,46.55
2019-03-23T18:08:10.335Z,49.20
2019-03-23T18:10:50.213Z,50.50
2019-03-23T18:13:28.264Z,56.37
2019-03-23T18:16:08.258Z,51.70
2019-03-23T18:18:47.708Z,56.33
2019-03-23T18:21:26.192Z,48.20
2019-03-23T18:24:05.217Z,53.08
2019-03-23T18:26:44.426Z,48.08
2019-03-23T18:29:24.260Z,49.03
2019-03-23T18:32:03.804Z,48.45
2019-03-23T18:34:46.816Z,54.80
2019-03-23T18:37:26.473Z,49.77
2019-03-23T18:40:08.284Z,53.28
2019-03-23T18:42:45.668Z,52.75
2019-03-23T18:45:25.633Z,48.48
2019-03-23T18:48:05.775Z,48.83
2019-03-23T18:50:45.678Z,48.58
2019-03-23T18:53:24.665Z,48.98
2019-03-23T18:56:03.272Z,47.80
2019-03-23T18:58:42.319Z,46.75
2019-03-23T19:01:21.877Z,47.38
2019-03-23T19:04:00.822Z,51.50
2019-03-23T19:06:39.435Z,47.53
2019-03-23T19:09:19.076Z,53.38
2019-03-23T19:11:57.598Z,51.85
2019-03-23T19:14:36.690Z,51.50
2019-03-23T19:17:15.347Z,51.55
2019-03-23T19:19:55.083Z,45.25
2019-03-23T19:22:34.139Z,47.30
2019-03-23T19:25:17.230Z,54.63
2019-03-23T19:27:54.662Z,49.42
2019-03-23T19:30:37.348Z,48.10
2019-03-23T19:33:16.774Z,48.52
2019-03-23T19:35:56.922Z,48.85
2019-03-23T19:38:35.384Z,50.33
2019-03-23T19:41:17.027Z,50.05
2019-03-23T19:43:55.372Z,49.38
2019-03-23T19:46:34.821Z,40.10
2019-03-23T19:49:13.585Z,39.75
2019-03-23T19:51:53.561Z,43.05
2019-03-23T19:54:33.791Z,41.08
2019-03-23T19:57:13.757Z,42.20
2019-03-23T19:59:52.704Z,42.03
2019-03-23T20:02:31.927Z,43.30
2019-03-23T20:05:10.900Z,42.40
2019-03-23T20:07:49.439Z,39.70
2019-03-23T20:10:31.585Z,38.25
2019-03-23T20:15:48.392Z,41.30
2019-03-23T20:18:28.571Z,39.90
2019-03-23T20:21:08.168Z,40.38
2019-03-23T20:23:47.206Z,40.35
2019-03-23T20:26:26.922Z,42.23
2019-03-23T20:29:09.188Z,44.50
2019-03-23T20:31:47.542Z,38.25
2019-03-23T20:34:26.411Z,40.58
2019-03-23T20:37:04.626Z,44.42
2019-03-23T20:39:43.366Z,41.00
2019-03-23T20:42:22.483Z,42.55
2019-03-23T20:45:03.971Z,41.83
2019-03-23T20:47:43.170Z,47.87
2019-03-23T20:50:21.455Z,42.20
2019-03-23T20:53:00.215Z,44.98
2019-03-23T20:55:40.181Z,43.73
2019-03-23T20:58:20.024Z,40.65
2019-03-23T21:01:00.376Z,45.52
2019-03-23T21:03:39.646Z,45.28
2019-03-23T21:06:19.272Z,43.17
2019-03-23T21:08:57.557Z,42.40
2019-03-23T21:11:36.874Z,42.08
2019-03-23T21:14:20.097Z,44.08
2019-03-23T21:16:58.689Z,41.50
2019-03-23T21:19:37.428Z,40.58
2019-03-23T21:22:17.569Z,43.95
2019-03-23T21:24:56.021Z,41.30
2019-03-23T21:27:36.700Z,46.48
2019-03-23T21:30:17.841Z,46.18
2019-03-23T21:32:59.554Z,41.37
2019-03-23T21:35:39.096Z,44.30
2019-03-23T21:38:19.669Z,44.90
2019-03-23T21:41:06.796Z,45.50
2019-03-23T21:43:45.745Z,40.50
2019-03-23T21:46:24.396Z,48.58
2019-03-23T21:49:04.035Z,42.55
2019-03-23T21:51:42.534Z,43.17
2019-03-23T21:54:23.093Z,43.73
2019-03-23T21:57:01.346Z,41.48
2019-03-23T21:59:40.954Z,44.77
2019-03-23T22:02:21.281Z,41.75
2019-03-23T22:05:02.325Z,44.25
2019-03-23T22:07:42.269Z,46.10
2019-03-23T22:10:23.061Z,44.67
2019-03-23T22:13:02.789Z,42.53
2019-03-23T22:15:42.404Z,40.70
2019-03-23T22:18:21.278Z,49.03
2019-03-23T22:21:01.436Z,44.20
2019-03-23T22:23:40.181Z,47.65
2019-03-23T22:26:19.574Z,44.25
2019-03-23T22:28:58.800Z,48.78
2019-03-23T22:31:38.796Z,44.75
2019-03-23T22:34:19.967Z,48.35
2019-03-23T22:36:58.807Z,60.10
2019-03-23T22:39:38.708Z,50.03
2019-03-23T22:42:17.909Z,46.37
2019-03-23T22:44:57.043Z,48.70
2019-03-23T22:47:40.301Z,49.38
2019-03-23T22:50:18.947Z,49.25
2019-03-23T22:53:01.628Z,44.75
2019-03-23T22:55:42.691Z,50.70
2019-03-23T22:58:22.574Z,45.17
2019-03-23T23:01:01.347Z,48.65
2019-03-23T23:03:44.328Z,43.85
2019-03-23T23:06:24.852Z,43.45
2019-03-23T23:09:06.170Z,48.25
2019-03-23T23:11:44.797Z,49.03
2019-03-23T23:14:28.410Z,44.77
2019-03-23T23:17:07.533Z,45.88
2019-03-23T23:19:46.063Z,46.58
2019-03-23T23:22:25.975Z,44.75
2019-03-23T23:25:05.712Z,46.95
2019-03-23T23:27:44.703Z,43.10
2019-03-23T23:30:23.586Z,48.28
2019-03-23T23:33:03.448Z,41.68
2019-03-23T23:35:44.874Z,49.90
2019-03-23T23:38:25.956Z,43.68
2019-03-23T23:41:06.526Z,46.60
2019-03-23T23:43:45.574Z,41.40
2019-03-23T23:46:31.654Z,44.03
2019-03-23T23:49:10.646Z,50.73
2019-03-23T23:51:50.304Z,49.25
2019-03-23T23:54:31.287Z,41.25
2019-03-23T23:57:10.965Z,43.15
2019-03-23T23:59:50.410Z,42.38
